College Park, Nevada
Current Conditions -  °F | °C
As of 7:53 PM on Thursday 20 Nov 2014 (Local Time) from KVGT Reporting Station
Clear Clear  
Wind Chill: 57°   Ceiling: Unl
Heat Index: 57°   Visibility: 10mi
Dew Point: 11°   Wind: 0mph
Humidity: 16%   Direction: NA
Pressure: 29.94"   Gusts: NA
Location:  36.2257°N, 115.178°W
Report Text: KVGT 210353Z 00000KT 10SM CLR 14/M12 A2994 RMK AO2 SLP155 T01391117
Loading
Personal Weather Stations






























Interactive Weather Map New forecast layout! Learn more

10-Day Weather Forecast

Advertisements
Track Severe Weather on mobile